パリ/シャルル・ド・ゴール の空港の天気 - METARとTAF

シャルル・ド・ゴール国際空港(パリ) ( LFPG / CDG ) - フランス Paris
飛行場実況気象(Metar)
観測時間06/26 00:00 CEST (06/25 22:00 UTC)
風向・風速北北東 4m/s
視程10km以上
天気現象
なし
気温23℃
湿度73%
気圧1021hPa
METARLFPG 252200Z 02008KT CAVOK 23/18 Q1021 NOSIG
過去の天気等 Google飛行場航空写真 Wunderground天気予報

過去48時間のMETAR

飛行場予報(TAF)
発表時間: 6/25 19:00 CEST (6/25 17:00 UTC)
予報対象時間: 25日20時 CEST ~ 27日2時 CEST
風向・風速北北西 3m/s
視程10km以上
なし
25日22時 CEST ~ 25日23時 CEST に徐々に
風向・風速北北東 5m/s
26日19時 CEST ~ 27日2時 CEST に一時的に
風向・風速北東 8m/s 瞬間風速 13m/s
TAF LFPG 251700Z 2518/2624 34005KT CAVOK TX34/2615Z TN20/2604Z
BECMG 2520/2521 02010KT
TEMPO 2617/2624 04015G25KT